createdAt,value
2023-02-06T00:01:46.751Z,103835.38
2023-02-06T00:04:15.857Z,103836.06
2023-02-06T00:06:44.592Z,103844.22
2023-02-06T00:09:15.029Z,103849.53
2023-02-06T00:11:46.160Z,103836.31
2023-02-06T00:14:14.527Z,103829.88
2023-02-06T00:16:42.990Z,103816.84
2023-02-06T00:19:11.336Z,103825.44
2023-02-06T00:21:39.664Z,103832.91
2023-02-06T00:24:08.447Z,103837.69
2023-02-06T00:26:38.616Z,103840.81
2023-02-06T00:29:07.200Z,103833.59
2023-02-06T00:31:35.730Z,103825.91
2023-02-06T00:34:05.031Z,103821.34
2023-02-06T00:36:34.719Z,103831.75
2023-02-06T00:39:03.074Z,103839.47
2023-02-06T00:41:34.092Z,103842.16
2023-02-06T00:44:03.960Z,103828.81
2023-02-06T00:46:32.843Z,103824.97
2023-02-06T00:49:01.180Z,103826.91
2023-02-06T00:51:29.988Z,103823.38
2023-02-06T00:53:58.596Z,103821.34
2023-02-06T00:56:26.806Z,103798.06
2023-02-06T00:58:54.966Z,103801.25
2023-02-06T01:01:26.546Z,103799.44
2023-02-06T01:03:54.847Z,103798.28
2023-02-06T01:06:23.212Z,103797.59
2023-02-06T01:08:51.380Z,103780.41
2023-02-06T01:11:22.756Z,103774.28
2023-02-06T01:13:51.317Z,103774.06
2023-02-06T01:16:22.398Z,103776.78
2023-02-06T01:18:52.427Z,103783.34
2023-02-06T01:21:24.073Z,103786.88
2023-02-06T01:23:53.933Z,103789.00
2023-02-06T01:26:25.811Z,103786.53
2023-02-06T01:28:55.658Z,103792.16
2023-02-06T01:31:26.032Z,103793.31
2023-02-06T01:33:57.774Z,103788.53
2023-02-06T01:36:26.704Z,103792.63
2023-02-06T01:38:55.066Z,103786.59
2023-02-06T01:41:24.852Z,103783.78
2023-02-06T01:44:11.889Z,103785.81
2023-02-06T01:46:41.950Z,103792.63
2023-02-06T01:49:16.640Z,103796.94
2023-02-06T01:51:45.505Z,103793.75
2023-02-06T01:54:15.594Z,103804.16
2023-02-06T01:56:49.368Z,103802.34
2023-02-06T01:59:17.893Z,103816.56
2023-02-06T02:01:46.301Z,103831.13
2023-02-06T02:04:18.826Z,103834.69
2023-02-06T02:06:51.773Z,103852.47
2023-02-06T02:09:20.159Z,103849.88
2023-02-06T02:11:48.456Z,103845.59
2023-02-06T02:14:17.958Z,103837.19
2023-02-06T02:16:56.615Z,103842.06
2023-02-06T02:20:18.419Z,103853.25
2023-02-06T02:23:12.900Z,103851.66
2023-02-06T02:26:07.778Z,103826.09
2023-02-06T02:29:09.131Z,103840.09
2023-02-06T02:32:09.687Z,103836.63
2023-02-06T02:35:03.004Z,103838.31
2023-02-06T02:37:39.415Z,103828.34
2023-02-06T02:40:16.187Z,103835.72
2023-02-06T02:42:54.657Z,103828.59
2023-02-06T02:45:31.664Z,103812.75
2023-02-06T02:48:05.443Z,103812.63
2023-02-06T02:50:37.019Z,103810.94
2023-02-06T02:53:06.333Z,103820.69
2023-02-06T02:55:35.081Z,103812.75
2023-02-06T02:58:07.592Z,103811.16
2023-02-06T03:00:41.188Z,103812.75
2023-02-06T03:03:12.303Z,103824.72
2023-02-06T03:05:47.475Z,103831.94
2023-02-06T03:08:23.410Z,103826.84
2023-02-06T03:11:04.348Z,103838.31
2023-02-06T03:13:39.624Z,103833.22
2023-02-06T03:16:13.705Z,103821.13
2023-02-06T03:18:45.974Z,103825.84
2023-02-06T03:21:19.266Z,103814.75
2023-02-06T03:23:51.502Z,103821.22
2023-02-06T03:26:23.644Z,103814.91
2023-02-06T03:28:54.680Z,103813.22
2023-02-06T03:31:30.191Z,103815.69
2023-02-06T03:34:03.699Z,103807.56
2023-02-06T03:36:33.634Z,103809.81
2023-02-06T03:39:01.975Z,103820.44
2023-02-06T03:41:38.298Z,103812.50
2023-02-06T03:44:09.855Z,103810.81
2023-02-06T03:46:41.329Z,103829.38
2023-02-06T03:49:12.393Z,103831.97
2023-02-06T03:51:46.943Z,103817.28
2023-02-06T03:54:17.821Z,103821.81
2023-02-06T03:56:51.178Z,103824.56
2023-02-06T03:59:19.666Z,103816.38
2023-02-06T04:01:51.642Z,103806.44
2023-02-06T04:04:29.231Z,103805.19
2023-02-06T04:07:00.323Z,103797.84
2023-02-06T04:09:29.082Z,103800.78
2023-02-06T04:11:57.396Z,103797.03
2023-02-06T04:14:25.600Z,103799.19
2023-02-06T04:16:53.712Z,103805.50
2023-02-06T04:19:22.257Z,103799.59
2023-02-06T04:21:50.950Z,103800.31
2023-02-06T04:24:20.908Z,103804.16
2023-02-06T04:26:49.365Z,103796.22
2023-02-06T04:29:17.694Z,103800.53
2023-02-06T04:31:46.013Z,103805.28
2023-02-06T04:34:14.434Z,103808.88
2023-02-06T04:36:43.065Z,103808.88
2023-02-06T04:39:11.883Z,103820.25
2023-02-06T04:41:42.160Z,103811.84
2023-02-06T04:44:10.272Z,103828.13
2023-02-06T04:46:38.444Z,103832.31
2023-02-06T04:49:06.793Z,103837.56
2023-02-06T04:51:35.150Z,103832.66
2023-02-06T04:54:03.416Z,103841.53
2023-02-06T04:56:32.041Z,103840.38
2023-02-06T04:59:02.016Z,103854.19
2023-02-06T05:01:30.264Z,103852.38
2023-02-06T05:03:58.468Z,103852.13
2023-02-06T05:06:26.812Z,103845.34
2023-02-06T05:08:55.216Z,103845.78
2023-02-06T05:11:23.733Z,103853.94
2023-02-06T05:13:52.136Z,103850.78
2023-02-06T05:16:21.832Z,103851.09
2023-02-06T05:18:54.668Z,103862.06
2023-02-06T05:21:23.692Z,103873.81
2023-02-06T05:23:52.123Z,103868.38
2023-02-06T05:26:20.943Z,103861.91
2023-02-06T05:28:49.182Z,103853.44
2023-02-06T05:31:19.883Z,103856.19
2023-02-06T05:33:52.694Z,103858.88
2023-02-06T05:36:22.062Z,103852.91
2023-02-06T05:38:51.203Z,103843.72
2023-02-06T05:41:19.664Z,103854.59
2023-02-06T05:43:48.105Z,103857.97
2023-02-06T05:46:16.343Z,103857.34
2023-02-06T05:48:44.942Z,103851.00
2023-02-06T05:51:14.483Z,103852.13
2023-02-06T05:53:42.588Z,103859.16
2023-02-06T05:56:11.001Z,103863.25
2023-02-06T05:58:39.081Z,103860.06
2023-02-06T06:01:07.443Z,103867.53
2023-02-06T06:03:36.124Z,103864.50
2023-02-06T06:06:04.249Z,103874.56
2023-02-06T06:08:33.979Z,103869.69
2023-02-06T06:11:03.019Z,103872.50
2023-02-06T06:13:31.382Z,103876.34
2023-02-06T06:15:59.817Z,103875.91
2023-02-06T06:18:28.624Z,103869.13
2023-02-06T06:20:56.942Z,103858.81
2023-02-06T06:23:25.206Z,103855.31
2023-02-06T06:25:54.861Z,103855.09
2023-02-06T06:28:23.008Z,103849.88
2023-02-06T06:30:51.415Z,103841.81
2023-02-06T06:33:22.926Z,103841.69
2023-02-06T06:35:51.246Z,103842.75
2023-02-06T06:38:19.646Z,103839.41
2023-02-06T06:40:50.087Z,103839.91
2023-02-06T06:43:20.184Z,103842.63
2023-02-06T06:45:48.514Z,103839.94
2023-02-06T06:48:16.667Z,103825.44
2023-02-06T06:50:44.935Z,103827.47
2023-02-06T06:53:13.216Z,103819.22
2023-02-06T06:55:41.743Z,103818.88
2023-02-06T06:58:10.269Z,103818.66
2023-02-06T07:00:40.611Z,103812.31
2023-02-06T07:03:09.585Z,103806.41
2023-02-06T07:05:38.091Z,103805.28
2023-02-06T07:08:06.728Z,103816.59
2023-02-06T07:10:34.953Z,103807.97
2023-02-06T07:13:03.204Z,103813.31
2023-02-06T07:15:31.763Z,103809.59
2023-02-06T07:18:01.731Z,103818.88
2023-02-06T07:20:29.881Z,103819.34
2023-02-06T07:22:58.139Z,103821.59
2023-02-06T07:25:26.530Z,103820.91
2023-02-06T07:27:54.980Z,103822.47
2023-02-06T07:30:24.860Z,103808.34
2023-02-06T07:32:53.664Z,103829.50
2023-02-06T07:35:23.938Z,103835.38
2023-02-06T07:37:55.200Z,103819.09
2023-02-06T07:40:25.159Z,103845.13
2023-02-06T07:42:54.535Z,103851.03
2023-02-06T07:45:23.222Z,103845.13
2023-02-06T07:47:52.240Z,103858.03
2023-02-06T07:50:20.568Z,103859.47
2023-02-06T07:52:50.242Z,103865.06
2023-02-06T07:55:18.765Z,103865.94
2023-02-06T07:57:46.879Z,103884.50
2023-02-06T08:00:16.599Z,103882.91
2023-02-06T08:02:45.299Z,103876.16
2023-02-06T08:05:13.772Z,103871.72
2023-02-06T08:07:42.077Z,103863.44
2023-02-06T08:10:12.019Z,103887.00
2023-02-06T08:12:40.235Z,103876.03
2023-02-06T08:15:09.255Z,103878.63
2023-02-06T08:17:37.589Z,103885.88
2023-02-06T08:20:06.150Z,103880.91
2023-02-06T08:22:34.474Z,103881.34
2023-02-06T08:25:02.797Z,103882.47
2023-02-06T08:27:32.527Z,103882.00
2023-02-06T08:30:01.239Z,103895.59
2023-02-06T08:32:34.747Z,103895.94
2023-02-06T08:35:03.024Z,103902.63
2023-02-06T08:37:32.970Z,103912.38
2023-02-06T08:40:01.190Z,103926.59
2023-02-06T08:42:29.548Z,103922.31
2023-02-06T08:45:01.408Z,103921.53
2023-02-06T08:47:29.538Z,103919.63
2023-02-06T08:49:58.385Z,103924.47
2023-02-06T08:52:26.950Z,103918.25
2023-02-06T08:54:55.148Z,103918.94
2023-02-06T08:57:23.587Z,103907.84
2023-02-06T08:59:52.057Z,103913.03
2023-02-06T09:02:21.731Z,103916.09
2023-02-06T09:04:50.163Z,103910.78
2023-02-06T09:07:18.434Z,103911.69
2023-02-06T09:09:46.655Z,103916.69
2023-02-06T09:12:14.973Z,103907.38
2023-02-06T09:14:43.346Z,103910.53
2023-02-06T09:17:11.500Z,103918.94
2023-02-06T09:19:41.485Z,103922.78
2023-02-06T09:22:09.760Z,103918.25
2023-02-06T09:24:39.193Z,103929.34
2023-02-06T09:27:08.113Z,103932.72
2023-02-06T09:29:36.628Z,103932.97
2023-02-06T09:32:04.952Z,103909.88
2023-02-06T09:34:33.455Z,103929.13
2023-02-06T09:37:05.338Z,103928.91
2023-02-06T09:39:34.374Z,103928.44
2023-02-06T09:42:07.766Z,103935.94
2023-02-06T09:44:40.423Z,103929.47
2023-02-06T09:47:21.965Z,103944.03
2023-02-06T09:49:53.650Z,103955.59
2023-02-06T09:52:52.452Z,103949.06
2023-02-06T09:55:30.042Z,103953.78
2023-02-06T09:58:08.245Z,103958.00
2023-02-06T10:00:42.786Z,103956.97
2023-02-06T10:03:30.316Z,103958.78
2023-02-06T10:06:15.130Z,103976.00
2023-02-06T10:08:51.845Z,103970.78
2023-02-06T10:11:27.072Z,103984.81
2023-02-06T10:13:59.635Z,103983.47
2023-02-06T10:16:37.948Z,103991.84
2023-02-06T10:19:12.876Z,103985.28
2023-02-06T10:21:47.205Z,103968.75
2023-02-06T10:24:25.214Z,103983.03
2023-02-06T10:26:59.694Z,103993.22
2023-02-06T10:29:31.882Z,103975.09
2023-02-06T10:32:11.948Z,103976.94
2023-02-06T10:35:08.757Z,103982.13
2023-02-06T10:38:10.929Z,103984.16
2023-02-06T10:40:49.646Z,103983.94
2023-02-06T10:43:27.836Z,103970.13
2023-02-06T10:46:02.721Z,103960.81
2023-02-06T10:48:35.539Z,103961.72
2023-02-06T10:51:15.898Z,103963.09
2023-02-06T10:53:50.065Z,103954.03
2023-02-06T10:56:25.139Z,103957.44
2023-02-06T10:58:59.283Z,103956.16
2023-02-06T11:01:33.812Z,103949.53
2023-02-06T11:04:07.385Z,103929.91
2023-02-06T11:06:36.774Z,103934.31
2023-02-06T11:09:05.353Z,103929.75
2023-02-06T11:11:40.240Z,103927.00
2023-02-06T11:14:18.500Z,103938.59
2023-02-06T11:16:48.340Z,103942.50
2023-02-06T11:19:20.313Z,103942.00
2023-02-06T11:22:09.257Z,103945.25
2023-02-06T11:24:39.677Z,103951.91
2023-02-06T11:27:18.403Z,103954.72
2023-02-06T11:29:51.977Z,103946.13
2023-02-06T11:32:35.586Z,103943.13
2023-02-06T11:35:07.211Z,103930.69
2023-02-06T11:37:38.974Z,103926.53
2023-02-06T11:40:24.072Z,103913.50
2023-02-06T11:42:56.538Z,103914.47
2023-02-06T11:45:29.288Z,103916.50
2023-02-06T11:47:58.177Z,103920.59
2023-02-06T11:50:30.414Z,103920.25
2023-02-06T11:53:09.456Z,103906.69
2023-02-06T11:55:39.909Z,103914.25
2023-02-06T11:58:24.232Z,103908.44
2023-02-06T12:01:02.872Z,103901.81
2023-02-06T12:03:35.949Z,103900.22
2023-02-06T12:06:12.453Z,103899.75
2023-02-06T12:08:48.779Z,103900.78
2023-02-06T12:11:24.640Z,103898.59
2023-02-06T12:13:59.920Z,103899.44
2023-02-06T12:16:31.770Z,103890.59
2023-02-06T12:19:02.301Z,103898.66
2023-02-06T12:21:41.792Z,103906.25
2023-02-06T12:24:22.945Z,103900.44
2023-02-06T12:26:52.302Z,103894.50
2023-02-06T12:29:26.890Z,103894.69
2023-02-06T12:32:00.878Z,103890.81
2023-02-06T12:34:45.010Z,103889.31
2023-02-06T12:37:21.360Z,103871.50
2023-02-06T12:39:52.839Z,103870.13
2023-02-06T12:42:34.681Z,103869.13
2023-02-06T12:45:15.329Z,103865.47
2023-02-06T12:47:52.467Z,103858.69
2023-02-06T12:50:25.228Z,103864.28
2023-02-06T12:52:57.715Z,103868.41
2023-02-06T12:55:32.047Z,103872.50
2023-02-06T12:58:00.782Z,103864.28
2023-02-06T13:00:53.851Z,103852.44
2023-02-06T13:03:29.979Z,103851.03
2023-02-06T13:06:04.425Z,103839.59
2023-02-06T13:08:42.683Z,103841.00
2023-02-06T13:11:23.953Z,103843.00
2023-02-06T13:14:01.986Z,103839.41
2023-02-06T13:16:52.584Z,103829.16
2023-02-06T13:19:29.355Z,103827.38
2023-02-06T13:22:45.456Z,103823.31
2023-02-06T13:25:53.821Z,103797.59
2023-02-06T13:29:01.303Z,103814.53
2023-02-06T13:31:31.996Z,103814.69
2023-02-06T13:34:04.522Z,103826.84
2023-02-06T13:36:47.756Z,103817.72
2023-02-06T13:39:24.888Z,103813.59
2023-02-06T13:41:55.995Z,103822.97
2023-02-06T13:44:29.585Z,103827.38
2023-02-06T13:47:34.404Z,103840.81
2023-02-06T13:50:37.685Z,103837.16
2023-02-06T13:53:19.714Z,103832.16
2023-02-06T13:56:03.589Z,103830.16
2023-02-06T13:58:47.661Z,103829.47
2023-02-06T14:01:23.283Z,103827.94
2023-02-06T14:03:54.301Z,103825.31
2023-02-06T14:06:39.837Z,103822.94
2023-02-06T14:09:43.915Z,103831.38
2023-02-06T14:12:35.587Z,103843.75
2023-02-06T14:15:19.036Z,103846.00
2023-02-06T14:18:04.467Z,103844.81
2023-02-06T14:20:47.887Z,103847.03
2023-02-06T14:23:29.121Z,103844.00
2023-02-06T14:26:07.413Z,103854.75
2023-02-06T14:28:46.049Z,103846.22
2023-02-06T14:31:39.629Z,103846.19
2023-02-06T14:34:25.675Z,103850.03
2023-02-06T14:37:12.806Z,103851.53
2023-02-06T14:39:45.604Z,103847.03
2023-02-06T14:42:18.592Z,103837.72
2023-02-06T14:44:51.740Z,103835.75
2023-02-06T14:47:24.230Z,103829.94
2023-02-06T14:49:54.051Z,103832.38
2023-02-06T14:52:26.628Z,103837.97
2023-02-06T14:54:56.574Z,103826.34
2023-02-06T14:57:28.015Z,103826.13
2023-02-06T14:59:59.881Z,103830.44
2023-02-06T15:02:31.413Z,103834.28
2023-02-06T15:05:02.358Z,103840.00
2023-02-06T15:07:33.541Z,103848.25
2023-02-06T15:10:08.913Z,103858.59
2023-02-06T15:12:37.728Z,103853.09
2023-02-06T15:15:18.566Z,103839.28
2023-02-06T15:17:57.775Z,103845.81
2023-02-06T15:20:31.988Z,103843.75
2023-02-06T15:23:17.152Z,103837.13
2023-02-06T15:26:03.457Z,103849.97
2023-02-06T15:28:33.792Z,103849.97
2023-02-06T15:31:03.102Z,103838.31
2023-02-06T15:33:34.006Z,103849.75
2023-02-06T15:36:04.546Z,103851.50
2023-02-06T15:38:35.844Z,103848.47
2023-02-06T15:41:08.422Z,103850.75
2023-02-06T15:43:37.634Z,103856.19
2023-02-06T15:46:07.256Z,103862.50
2023-02-06T15:48:43.724Z,103864.13
2023-02-06T15:51:24.258Z,103862.97
2023-02-06T15:53:53.974Z,103857.75
2023-02-06T15:56:27.798Z,103850.69
2023-02-06T15:58:59.536Z,103852.75
2023-02-06T16:01:31.392Z,103865.94
2023-02-06T16:04:04.984Z,103861.66
2023-02-06T16:06:35.944Z,103876.16
2023-02-06T16:09:08.586Z,103880.28
2023-02-06T16:11:51.256Z,103879.34
2023-02-06T16:14:32.330Z,103886.13
2023-02-06T16:17:03.344Z,103899.78
2023-02-06T16:19:48.055Z,103903.38
2023-02-06T16:22:24.850Z,103915.28
2023-02-06T16:24:56.084Z,103907.78
2023-02-06T16:30:24.913Z,103911.84
2023-02-06T16:32:55.466Z,103922.03
2023-02-06T16:35:27.137Z,103914.59
2023-02-06T16:37:56.640Z,103919.38
2023-02-06T16:40:26.502Z,103905.34
2023-02-06T16:42:59.315Z,103901.69
2023-02-06T16:45:28.934Z,103912.56
2023-02-06T16:47:57.890Z,103904.66
2023-02-06T16:50:27.286Z,103889.34
2023-02-06T16:53:04.618Z,103886.94
2023-02-06T16:55:33.090Z,103899.50
2023-02-06T16:58:03.450Z,103901.19
2023-02-06T17:00:33.117Z,103895.06
2023-02-06T17:03:02.133Z,103901.41
2023-02-06T17:05:31.655Z,103902.44
2023-02-06T17:08:01.704Z,103909.38
2023-02-06T17:10:30.005Z,103908.47
2023-02-06T17:13:00.762Z,103903.66
2023-02-06T17:15:33.498Z,103894.63
2023-02-06T17:18:01.959Z,103894.63
2023-02-06T17:20:33.548Z,103903.66
2023-02-06T17:23:01.976Z,103910.06
2023-02-06T17:25:30.190Z,103900.88
2023-02-06T17:28:01.645Z,103891.44
2023-02-06T17:30:36.076Z,103900.81
2023-02-06T17:33:05.572Z,103893.00
2023-02-06T17:35:36.894Z,103905.94
2023-02-06T17:38:05.908Z,103898.03
2023-02-06T17:40:36.207Z,103901.41
2023-02-06T17:43:07.105Z,103885.13
2023-02-06T17:45:39.814Z,103885.84
2023-02-06T17:48:08.307Z,103888.09
2023-02-06T17:50:38.110Z,103869.28
2023-02-06T17:53:07.172Z,103878.97
2023-02-06T17:55:36.737Z,103879.19
2023-02-06T17:58:05.517Z,103876.97
2023-02-06T18:00:34.513Z,103874.03
2023-02-06T18:03:05.355Z,103876.31
2023-02-06T18:05:33.599Z,103873.22
2023-02-06T18:08:02.851Z,103869.69
2023-02-06T18:10:31.078Z,103872.19
2023-02-06T18:12:59.454Z,103864.94
2023-02-06T18:15:28.731Z,103848.88
2023-02-06T18:17:59.771Z,103850.69
2023-02-06T18:20:29.451Z,103825.22
2023-02-06T18:23:00.341Z,103860.59
2023-02-06T18:25:28.826Z,103854.50
2023-02-06T18:27:57.125Z,103850.63
2023-02-06T18:30:26.582Z,103848.41
2023-02-06T18:32:54.732Z,103843.53
2023-02-06T18:35:23.402Z,103837.66
2023-02-06T18:37:53.624Z,103845.31
2023-02-06T18:40:23.463Z,103840.78
2023-02-06T18:42:54.999Z,103835.28
2023-02-06T18:45:31.634Z,103831.41
2023-02-06T18:47:59.970Z,103829.50
2023-02-06T18:50:28.120Z,103821.28
2023-02-06T18:52:58.017Z,103814.84
2023-02-06T18:55:26.826Z,103804.41
2023-02-06T18:57:58.145Z,103806.72
2023-02-06T19:00:26.795Z,103806.03
2023-02-06T19:02:56.493Z,103812.63
2023-02-06T19:05:25.071Z,103809.63
2023-02-06T19:07:54.366Z,103808.25
2023-02-06T19:10:26.482Z,103808.84
2023-02-06T19:12:54.636Z,103802.50
2023-02-06T19:15:23.353Z,103809.28
2023-02-06T19:17:52.110Z,103815.88
2023-02-06T19:20:20.677Z,103811.84
2023-02-06T19:22:48.985Z,103818.66
2023-02-06T19:25:17.487Z,103810.66
2023-02-06T19:27:47.215Z,103800.22
2023-02-06T19:30:15.889Z,103804.53
2023-02-06T19:32:44.565Z,103804.31
2023-02-06T19:35:13.197Z,103802.03
2023-02-06T19:37:41.843Z,103799.31
2023-02-06T19:40:11.194Z,103790.59
2023-02-06T19:42:40.579Z,103793.09
2023-02-06T19:45:10.400Z,103791.00
2023-02-06T19:47:38.709Z,103791.44
2023-02-06T19:50:07.879Z,103792.53
2023-02-06T19:52:36.548Z,103794.91
2023-02-06T19:55:04.928Z,103789.41
2023-02-06T19:57:33.277Z,103790.03
2023-02-06T20:00:01.634Z,103793.03
2023-02-06T20:02:31.411Z,103786.22
2023-02-06T20:05:02.166Z,103779.19
2023-02-06T20:07:31.862Z,103798.44
2023-02-06T20:10:00.343Z,103795.06
2023-02-06T20:12:30.475Z,103799.38
2023-02-06T20:15:00.756Z,103807.09
2023-02-06T20:17:31.398Z,103800.06
2023-02-06T20:20:00.739Z,103801.69
2023-02-06T20:22:29.086Z,103801.06
2023-02-06T20:24:57.693Z,103806.06
2023-02-06T20:27:26.585Z,103807.88
2023-02-06T20:29:54.895Z,103801.28
2023-02-06T20:32:25.342Z,103801.69
2023-02-06T20:34:55.260Z,103800.06
2023-02-06T20:37:23.570Z,103800.06
2023-02-06T20:39:51.837Z,103791.63
2023-02-06T20:42:22.378Z,103792.81
2023-02-06T20:44:51.578Z,103783.38
2023-02-06T20:47:20.108Z,103792.03
2023-02-06T20:49:48.737Z,103790.81
2023-02-06T20:52:19.214Z,103780.97
2023-02-06T20:54:47.634Z,103779.34
2023-02-06T20:57:16.407Z,103797.44
2023-02-06T20:59:44.794Z,103782.16
2023-02-06T21:02:13.041Z,103791.91
2023-02-06T21:04:41.656Z,103785.41
2023-02-06T21:07:09.979Z,103790.00
2023-02-06T21:09:40.079Z,103786.47
2023-02-06T21:12:08.552Z,103777.75
2023-02-06T21:14:36.794Z,103784.00
2023-02-06T21:17:05.340Z,103782.16
2023-02-06T21:19:34.068Z,103777.34
2023-02-06T21:22:02.478Z,103776.44
2023-02-06T21:24:31.096Z,103777.78
2023-02-06T21:27:04.564Z,103776.16
2023-02-06T21:29:32.938Z,103768.22
2023-02-06T21:32:13.287Z,103767.91
2023-02-06T21:34:43.255Z,103763.81
2023-02-06T21:37:14.629Z,103751.13
2023-02-06T21:39:43.750Z,103767.28
2023-02-06T21:42:14.322Z,103764.31
2023-02-06T21:44:42.674Z,103754.44
2023-02-06T21:47:11.064Z,103762.91
2023-02-06T21:49:39.552Z,103755.47
2023-02-06T21:52:07.837Z,103764.31
2023-02-06T21:54:36.132Z,103750.06
2023-02-06T21:57:04.520Z,103760.28
2023-02-06T21:59:34.567Z,103754.69
2023-02-06T22:02:05.509Z,103759.78
2023-02-06T22:04:33.747Z,103752.31
2023-02-06T22:07:01.915Z,103748.84
2023-02-06T22:09:30.305Z,103752.25
2023-02-06T22:11:58.768Z,103759.28
2023-02-06T22:14:27.622Z,103757.66
2023-02-06T22:17:00.201Z,103747.03
2023-02-06T22:19:31.510Z,103750.63
2023-02-06T22:21:59.719Z,103756.06
2023-02-06T22:24:28.144Z,103754.44
2023-02-06T22:26:56.658Z,103760.88
2023-02-06T22:29:25.128Z,103757.06
2023-02-06T22:31:53.428Z,103757.47
2023-02-06T22:34:23.213Z,103753.16
2023-02-06T22:36:51.841Z,103750.41
2023-02-06T22:39:20.505Z,103757.88
2023-02-06T22:41:49.424Z,103757.47
2023-02-06T22:44:19.098Z,103746.81
2023-02-06T22:46:52.597Z,103747.72
2023-02-06T22:49:24.620Z,103729.16
2023-02-06T22:51:53.311Z,103752.22
2023-02-06T22:54:21.661Z,103743.56
2023-02-06T22:56:49.891Z,103743.75
2023-02-06T22:59:20.782Z,103734.31
2023-02-06T23:01:51.211Z,103750.63
2023-02-06T23:04:25.712Z,103744.69
2023-02-06T23:06:54.622Z,103741.75
2023-02-06T23:09:24.740Z,103738.34
2023-02-06T23:11:53.455Z,103743.56
2023-02-06T23:14:22.005Z,103750.41
2023-02-06T23:16:50.862Z,103744.13
2023-02-06T23:19:20.395Z,103737.75
2023-02-06T23:21:51.299Z,103734.50
2023-02-06T23:24:20.947Z,103744.97
2023-02-06T23:26:51.118Z,103740.34
2023-02-06T23:29:23.333Z,103730.59
2023-02-06T23:31:52.565Z,103721.25
2023-02-06T23:34:23.876Z,103724.84
2023-02-06T23:36:53.868Z,103733.69
2023-02-06T23:39:22.503Z,103729.72
2023-02-06T23:41:50.738Z,103726.47
2023-02-06T23:44:19.441Z,103727.38
2023-02-06T23:46:47.924Z,103724.28
2023-02-06T23:49:16.343Z,103730.72
2023-02-06T23:51:44.629Z,103720.47
2023-02-06T23:54:14.646Z,103716.75
2023-02-06T23:56:43.221Z,103717.66
2023-02-06T23:59:12.263Z,103717.44
